Time;durP1;ratioP1;P1;durP2;ratioP2;P2;SDS_P1;SDS_P2;PMS_P1;PMS_P2;Temp;Humidity;BMP_temperature;BMP_pressure;BME280_temperature;BME280_humidity;BME280_pressure;Samples;Min_cycle;Max_cycle;Signal;HPM_P1;HPM_P2
2023/05/14 00:00:19;;;;;;;16.65;13.18;;;;;;;15.36;76.79;101878.75;5094937;23;20057;-54
2023/05/14 00:02:44;;;;;;;15.63;13.07;;;;;;;15.25;78.55;101870.66;5032316;28;20053;-54
2023/05/14 00:07:41;;;;;;;15.60;13.90;;;;;;;15.08;78.29;101875.56;4973213;28;20054;-54
2023/05/14 00:10:07;;;;;;;17.45;13.85;;;;;;;15.07;79.19;101867.66;5224470;22;20131;-71
2023/05/14 00:12:32;;;;;;;15.55;13.70;;;;;;;15.07;79.57;101858.03;5052945;22;20413;-54
2023/05/14 00:17:27;;;;;;;15.88;14.18;;;;;;;14.96;79.05;101854.28;5074357;22;20097;-71
2023/05/14 00:19:53;;;;;;;17.00;13.52;;;;;;;14.94;80.21;101850.75;5033528;28;20029;-71
2023/05/14 00:22:18;;;;;;;17.45;14.05;;;;;;;14.91;79.82;101854.19;5056317;22;20054;-54
2023/05/14 00:24:43;;;;;;;16.10;13.65;;;;;;;14.89;79.91;101853.28;5146300;23;21109;-71
2023/05/14 00:27:09;;;;;;;15.18;13.57;;;;;;;14.81;79.48;101854.84;5043960;22;20083;-54
2023/05/14 00:29:34;;;;;;;16.98;14.35;;;;;;;14.67;79.79;101857.16;5057222;22;20790;-71
2023/05/14 00:31:59;;;;;;;18.33;13.85;;;;;;;14.47;80.60;101853.13;5126469;23;20060;-54
2023/05/14 00:36:56;;;;;;;17.13;14.57;;;;;;;14.17;81.29;101848.94;5075450;23;20187;-53
2023/05/14 00:39:21;;;;;;;17.80;14.75;;;;;;;14.14;82.05;101843.63;5127127;22;20436;-71
2023/05/14 00:41:47;;;;;;;18.15;15.02;;;;;;;14.12;81.65;101842.66;5031825;28;20037;-71
2023/05/14 00:44:12;;;;;;;16.92;14.93;;;;;;;14.05;81.74;101842.53;5054163;23;20046;-54
2023/05/14 00:49:31;;;;;;;19.30;15.48;;;;;;;13.99;81.88;101833.59;5116335;22;20050;-71
2023/05/14 00:51:59;;;;;;;18.52;15.38;;;;;;;13.98;81.11;101837.97;5053570;23;20053;-57
2023/05/14 00:54:24;;;;;;;18.60;15.32;;;;;;;13.96;82.36;101834.44;5161398;23;20140;-71
2023/05/14 00:56:50;;;;;;;19.63;15.75;;;;;;;13.90;81.99;101831.63;5179220;22;20144;-56
2023/05/14 01:04:19;;;;;;;21.17;15.50;;;;;;;13.99;82.16;101829.28;5106024;23;20126;-71
2023/05/14 01:07:08;;;;;;;21.58;15.40;;;;;;;13.97;81.68;101836.19;5069776;23;20471;-53
2023/05/14 01:12:32;;;;;;;20.05;15.25;;;;;;;13.87;82.44;101828.94;5091148;22;20061;-70
2023/05/14 01:17:27;;;;;;;19.80;15.73;;;;;;;13.76;82.91;101831.31;5024765;22;20455;-71
2023/05/14 01:19:54;;;;;;;20.00;16.17;;;;;;;13.67;83.18;101837.19;5032915;23;20034;-53
2023/05/14 01:24:48;;;;;;;19.73;16.67;;;;;;;13.54;83.85;101829.81;4998570;28;20298;-71
2023/05/14 01:29:50;;;;;;;21.25;17.42;;;;;;;13.47;84.70;101828.78;5080967;23;20050;-71
2023/05/14 01:32:17;;;;;;;20.67;17.27;;;;;;;13.52;83.83;101827.16;5125263;22;20064;-54
2023/05/14 01:34:46;;;;;;;21.23;17.95;;;;;;;13.52;83.95;101824.53;5124311;22;20065;-53
2023/05/14 01:37:12;;;;;;;22.90;17.63;;;;;;;13.49;83.74;101819.22;5070335;22;20049;-56
2023/05/14 01:39:39;;;;;;;21.45;17.73;;;;;;;13.49;83.91;101811.38;5092445;23;20111;-53
2023/05/14 01:42:06;;;;;;;21.73;17.65;;;;;;;13.51;83.83;101820.16;5196090;22;20080;-71
2023/05/14 01:44:34;;;;;;;22.42;17.73;;;;;;;13.48;83.84;101812.22;5222067;22;20183;31
2023/05/14 01:47:25;;;;;;;21.08;17.65;;;;;;;13.47;83.08;101817.41;5068716;22;20072;31
2023/05/14 01:49:50;;;;;;;25.83;17.80;;;;;;;13.44;83.75;101823.47;5094185;23;20045;-53
2023/05/14 01:52:16;;;;;;;22.52;17.42;;;;;;;13.42;84.03;101817.28;5033501;28;20070;-53
2023/05/14 01:54:41;;;;;;;20.90;17.50;;;;;;;13.34;83.81;101817.09;5073197;23;20060;-71
2023/05/14 01:57:06;;;;;;;22.25;17.92;;;;;;;13.29;84.77;101823.88;5172722;22;20061;-53
2023/05/14 01:59:31;;;;;;;25.13;18.02;;;;;;;13.23;85.06;101827.19;5093882;22;20503;-71
2023/05/14 02:01:57;;;;;;;22.30;18.10;;;;;;;13.19;85.31;101817.50;5163370;23;20025;-71
2023/05/14 02:04:22;;;;;;;24.00;19.48;;;;;;;13.07;85.90;101816.28;5082958;23;20469;-70
2023/05/14 02:06:47;;;;;;;23.95;18.17;;;;;;;13.01;85.70;101809.13;5142748;23;20087;-55
2023/05/14 02:09:12;;;;;;;23.13;18.90;;;;;;;13.00;85.65;101808.22;5180510;23;20127;-55
2023/05/14 02:11:38;;;;;;;24.40;18.90;;;;;;;13.00;85.65;101808.22;5075772;23;20057;-70
2023/05/14 02:14:03;;;;;;;23.17;18.98;;;;;;;13.02;85.47;101809.16;5078259;22;20053;-70
2023/05/14 02:16:28;;;;;;;24.08;18.90;;;;;;;13.01;85.97;101804.78;5163097;23;20058;-70
2023/05/14 02:18:54;;;;;;;25.45;18.83;;;;;;;13.04;86.09;101806.59;5095499;22;20075;-53
2023/05/14 02:21:19;;;;;;;21.65;18.15;;;;;;;13.04;86.58;101807.47;5081780;22;20068;-53
2023/05/14 02:23:44;;;;;;;23.88;18.90;;;;;;;13.02;86.10;101809.16;5055048;23;20447;-71
2023/05/14 02:26:10;;;;;;;23.27;18.27;;;;;;;13.00;86.47;101805.59;5156930;22;20061;-54
2023/05/14 02:28:35;;;;;;;25.15;19.35;;;;;;;12.94;86.60;101805.44;5164847;22;20730;-54
2023/05/14 02:31:00;;;;;;;24.60;19.83;;;;;;;12.82;87.34;101802.47;5126705;22;20420;-71
2023/05/14 02:33:27;;;;;;;24.17;19.60;;;;;;;12.77;87.62;101801.44;5032815;28;20029;-71
2023/05/14 02:35:52;;;;;;;26.27;20.27;;;;;;;12.80;88.06;101801.53;5102331;23;20355;-71
2023/05/14 02:38:18;;;;;;;26.45;20.77;;;;;;;12.77;88.37;101802.31;5122673;23;20053;-56
2023/05/14 02:43:19;;;;;;;25.80;20.17;;;;;;;12.77;88.68;101789.22;5239804;22;20032;-71
2023/05/14 02:45:44;;;;;;;28.33;20.60;;;;;;;12.78;88.53;101798.00;5186405;23;20028;-55
2023/05/14 02:48:09;;;;;;;24.73;19.90;;;;;;;12.74;88.38;101801.34;5040957;28;20411;-53
2023/05/14 02:50:35;;;;;;;24.30;19.10;;;;;;;12.75;88.31;101800.50;5124880;22;20028;-53
2023/05/14 02:53:00;;;;;;;28.33;20.35;;;;;;;12.74;88.53;101801.34;5236184;23;20064;-72
2023/05/14 02:55:26;;;;;;;23.83;19.52;;;;;;;12.70;88.77;101797.72;5099975;23;20054;-71
2023/05/14 03:00:24;;;;;;;27.67;19.98;;;;;;;12.59;88.71;101796.53;5117955;22;20482;-56
2023/05/14 03:02:49;;;;;;;27.00;21.08;;;;;;;12.48;89.34;101804.03;5080722;23;20416;-55
2023/05/14 03:05:14;;;;;;;27.60;20.33;;;;;;;12.41;89.76;101805.59;5105204;22;20049;-56
2023/05/14 03:07:39;;;;;;;29.88;21.25;;;;;;;12.34;89.95;101801.00;5032849;28;20112;-57
2023/05/14 03:10:05;;;;;;;26.95;21.08;;;;;;;12.31;90.45;101791.34;5095967;23;20187;-56
2023/05/14 03:12:31;;;;;;;29.38;21.27;;;;;;;12.30;90.17;101794.78;5205568;22;20052;-54
2023/05/14 03:14:56;;;;;;;26.80;20.85;;;;;;;12.28;90.18;101796.47;5031026;28;20578;-54
2023/05/14 03:17:21;;;;;;;27.27;20.42;;;;;;;12.28;90.38;101796.47;5107864;22;20044;-54
2023/05/14 03:19:47;;;;;;;28.92;20.50;;;;;;;12.32;89.86;101787.00;5071467;23;20148;-71
2023/05/14 03:22:12;;;;;;;28.73;21.48;;;;;;;12.32;89.70;101782.63;5074745;23;20048;-54
2023/05/14 03:24:39;;;;;;;30.60;21.05;;;;;;;12.29;89.79;101787.78;5120244;23;20053;-56
2023/05/14 03:27:04;;;;;;;28.48;21.08;;;;;;;12.32;89.66;101779.16;5074671;23;20408;-71
2023/05/14 03:29:29;;;;;;;28.00;20.88;;;;;;;12.32;89.63;101785.25;5116079;23;20053;-71
2023/05/14 03:31:55;;;;;;;28.80;21.02;;;;;;;12.26;89.49;101778.97;5082427;22;20017;-53
2023/05/14 03:34:20;;;;;;;30.92;21.45;;;;;;;12.21;89.69;101773.59;5084332;23;20084;-71
2023/05/14 03:36:46;;;;;;;28.88;20.75;;;;;;;12.16;89.91;101775.16;5081271;22;20061;-71
2023/05/14 03:39:14;;;;;;;26.40;20.80;;;;;;;12.12;89.74;101782.03;4999274;22;20296;-56
2023/05/14 03:41:39;;;;;;;28.95;20.77;;;;;;;12.02;90.02;101781.66;5053385;23;20425;-71
2023/05/14 03:44:05;;;;;;;30.15;21.38;;;;;;;11.91;90.73;101778.69;5056135;23;20059;-56
2023/05/14 03:48:55;;;;;;;30.15;21.58;;;;;;;11.76;91.82;101776.41;5345575;22;20144;-56
2023/05/14 03:51:21;;;;;;;29.13;21.20;;;;;;;11.72;91.60;101774.56;5011881;22;20535;-71
2023/05/14 03:56:11;;;;;;;29.42;20.98;;;;;;;11.70;91.91;101778.84;5253172;23;20061;-55
2023/05/14 03:58:36;;;;;;;32.35;20.80;;;;;;;11.70;91.97;101778.84;5031493;28;20024;-56
2023/05/14 04:01:02;;;;;;;30.67;20.63;;;;;;;11.63;92.35;101775.16;5145981;22;20512;-55
2023/05/14 04:03:27;;;;;;;28.67;20.48;;;;;;;11.57;92.71;101780.13;5128080;22;20919;-71
2023/05/14 04:05:52;;;;;;;33.75;21.88;;;;;;;11.55;93.00;101777.47;5203756;22;20065;-55
2023/05/14 04:08:17;;;;;;;27.88;20.85;;;;;;;11.58;92.79;101768.88;5108880;22;20065;-71
2023/05/14 04:10:43;;;;;;;29.55;21.50;;;;;;;11.54;93.04;101777.41;5037624;22;20137;-71
2023/05/14 04:13:08;;;;;;;30.73;22.42;;;;;;;11.47;93.58;101772.00;5222798;23;20076;-71
2023/05/14 04:15:34;;;;;;;30.95;22.08;;;;;;;11.47;93.86;101779.81;5323174;22;20052;-71
2023/05/14 04:18:00;;;;;;;30.90;21.88;;;;;;;11.52;93.54;101772.16;5055256;22;20319;-56
2023/05/14 04:20:26;;;;;;;31.70;22.38;;;;;;;11.51;94.08;101767.75;5262335;22;20021;-71
2023/05/14 04:25:17;;;;;;;31.65;21.75;;;;;;;11.39;94.37;101773.44;5137804;22;20537;-54
2023/05/14 04:27:42;;;;;;;32.58;21.55;;;;;;;11.39;94.59;101783.00;5072078;22;20156;-71
2023/05/14 04:30:08;;;;;;;31.50;22.63;;;;;;;11.35;94.60;101776.78;5162957;22;20050;-71
2023/05/14 04:35:04;;;;;;;31.50;21.98;;;;;;;11.27;95.67;101773.91;5040540;22;20080;-56
2023/05/14 04:37:30;;;;;;;36.50;23.58;;;;;;;11.31;95.97;101773.19;5059237;23;20057;-71
2023/05/14 04:39:55;;;;;;;33.38;22.90;;;;;;;11.28;95.97;101775.69;5050290;23;20057;-56
2023/05/14 04:42:21;;;;;;;34.03;22.15;;;;;;;11.29;96.17;101780.03;5009962;28;20466;-56
2023/05/14 04:44:46;;;;;;;34.22;22.92;;;;;;;11.28;96.45;101774.78;4957764;23;20130;-54
2023/05/14 04:47:11;;;;;;;35.75;22.60;;;;;;;11.27;96.93;101773.03;5182121;22;20065;-55
2023/05/14 04:49:37;;;;;;;33.97;22.10;;;;;;;11.23;96.77;101774.63;5018572;28;20025;-56
2023/05/14 04:52:02;;;;;;;34.65;22.42;;;;;;;11.20;97.31;101773.63;5077379;22;20500;-55
2023/05/14 04:54:27;;;;;;;32.13;21.65;;;;;;;11.18;97.37;101776.19;5160537;23;20064;-55
2023/05/14 04:56:54;;;;;;;33.58;22.17;;;;;;;11.16;97.64;101776.97;5160452;22;20063;-55
2023/05/14 04:59:20;;;;;;;32.35;21.60;;;;;;;11.11;98.35;101775.06;5030708;28;20025;-55
2023/05/14 05:01:45;;;;;;;35.03;22.65;;;;;;;11.10;98.22;101780.22;5071636;23;20064;-71
2023/05/14 05:04:11;;;;;;;32.25;21.48;;;;;;;11.14;98.47;101783.00;5083455;22;20148;-56
2023/05/14 05:13:59;;;;;;;33.60;22.13;;;;;;;11.11;99.48;101787.22;5203155;22;20342;-55
2023/05/14 05:16:25;;;;;;;33.33;21.45;;;;;;;11.13;99.52;101778.59;5096640;23;20101;-53
2023/05/14 05:18:50;;;;;;;32.75;21.92;;;;;;;11.19;99.20;101785.78;5092259;22;20425;-55
2023/05/14 05:21:15;;;;;;;34.08;21.73;;;;;;;11.24;98.71;101789.44;5201332;23;20053;-71
2023/05/14 05:23:40;;;;;;;33.40;21.50;;;;;;;11.30;99.08;101796.63;5107438;23;20056;-56
2023/05/14 05:26:06;;;;;;;30.30;19.02;;;;;;;11.33;96.34;101796.72;5153680;22;20037;-56
2023/05/14 05:28:31;;;;;;;32.20;19.92;;;;;;;11.41;98.12;101792.66;5031376;28;20034;-55
2023/05/14 05:33:33;;;;;;;30.77;20.17;;;;;;;11.45;98.56;101796.25;5035776;23;20111;-54
2023/05/14 05:35:59;;;;;;;27.77;19.58;;;;;;;11.47;98.29;101799.78;5215626;22;20057;-71
2023/05/14 05:38:24;;;;;;;30.83;20.10;;;;;;;11.51;98.25;101793.84;5097673;22;20056;-71
2023/05/14 05:40:49;;;;;;;35.97;21.23;;;;;;;11.53;97.65;101800.03;5054669;22;20049;-56
2023/05/14 05:43:15;;;;;;;35.35;21.52;;;;;;;11.57;97.65;101794.09;5134577;22;20144;-56
2023/05/14 05:45:41;;;;;;;31.55;19.48;;;;;;;11.62;97.27;101787.28;5138224;22;20567;-53
2023/05/14 05:48:06;;;;;;;30.25;19.98;;;;;;;11.69;97.51;101790.09;5143234;22;21493;-54
2023/05/14 05:50:31;;;;;;;28.00;19.75;;;;;;;11.74;96.07;101789.44;5217089;23;20115;-56
2023/05/14 05:52:59;;;;;;;30.98;19.85;;;;;;;11.78;95.64;101790.44;5097874;23;20061;-56
2023/05/14 05:57:56;;;;;;;30.00;19.38;;;;;;;11.90;95.57;101798.66;5148555;22;20068;-55
2023/05/14 06:00:22;;;;;;;30.75;20.20;;;;;;;11.96;96.65;101804.16;5095916;23;20045;-71
2023/05/14 06:02:47;;;;;;;29.25;19.27;;;;;;;11.99;96.82;101799.03;5034818;28;20032;-71
2023/05/14 06:05:13;;;;;;;31.48;19.60;;;;;;;11.97;95.11;101805.03;5094761;23;20041;-56
2023/05/14 06:07:38;;;;;;;29.58;19.05;;;;;;;11.98;96.31;101806.81;5060275;22;20060;-71
2023/05/14 06:10:04;;;;;;;33.00;20.17;;;;;;;11.99;97.30;101808.56;5069335;22;20057;-56
2023/05/14 06:14:59;;;;;;;29.08;19.25;;;;;;;11.93;98.04;101806.63;5058858;23;20134;-71
2023/05/14 06:17:24;;;;;;;33.85;20.23;;;;;;;11.82;98.88;101808.00;5100180;23;20647;-71
2023/05/14 06:19:51;;;;;;;28.95;19.10;;;;;;;11.76;99.61;101815.59;5029786;28;20567;-71
2023/05/14 06:22:16;;;;;;;34.22;20.58;;;;;;;11.78;99.47;101811.31;5096986;22;20057;-71
2023/05/14 06:24:42;;;;;;;33.47;20.35;;;;;;;11.81;99.83;101814.03;5172962;22;20077;-56
2023/05/14 06:27:07;;;;;;;31.48;19.70;;;;;;;11.79;99.83;101818.34;5120087;22;20447;-56
2023/05/14 06:32:03;;;;;;;33.50;20.38;;;;;;;11.79;100.00;101821.81;5060652;23;20029;-55
2023/05/14 06:34:29;;;;;;;36.13;21.40;;;;;;;11.79;100.00;101827.03;5209012;23;20052;-71
2023/05/14 06:41:58;;;;;;;35.33;20.00;;;;;;;12.12;100.00;101817.69;5094248;22;20079;-54
2023/05/14 06:44:24;;;;;;;36.20;20.52;;;;;;;12.13;100.00;101817.75;5071272;22;20417;-57
2023/05/14 06:46:49;;;;;;;37.30;22.20;;;;;;;12.17;100.00;101819.63;5068580;22;20034;-56
2023/05/14 06:49:15;;;;;;;65.72;39.63;;;;;;;12.28;100.00;101819.09;4996481;28;20038;-56
2023/05/14 06:56:40;;;;;;;36.47;22.67;;;;;;;12.73;100.00;101815.25;5052427;22;20184;-70
2023/05/14 06:59:05;;;;;;;36.45;21.20;;;;;;;12.79;98.12;101816.34;5083430;22;20065;-56
2023/05/14 07:01:30;;;;;;;35.97;21.33;;;;;;;12.87;98.88;101813.94;5042981;23;20046;-56
2023/05/14 07:03:56;;;;;;;34.30;21.58;;;;;;;12.94;98.56;101807.19;5028440;22;20053;-54
2023/05/14 07:06:22;;;;;;;36.85;22.02;;;;;;;12.97;98.68;101802.91;5109160;22;20069;-71
2023/05/14 07:08:47;;;;;;;34.75;22.40;;;;;;;13.02;97.78;101809.16;5039799;23;20159;-54
2023/05/14 07:11:13;;;;;;;36.00;22.70;;;;;;;13.12;97.20;101804.19;5046925;23;20061;-70
2023/05/14 07:16:14;;;;;;;35.42;21.15;;;;;;;13.35;95.77;101811.00;5042747;22;20119;-56
2023/05/14 07:18:39;;;;;;;33.58;21.05;;;;;;;13.42;94.66;101808.56;5029781;28;20014;-57
2023/05/14 07:21:05;;;;;;;40.00;22.48;;;;;;;13.47;95.78;101814.78;5203852;22;20745;-71
2023/05/14 07:23:32;;;;;;;38.45;21.88;;;;;;;13.54;95.49;101819.34;5094264;23;20081;-71
2023/05/14 07:25:57;;;;;;;37.33;22.25;;;;;;;13.59;94.37;101815.13;5334007;22;20045;-71
2023/05/14 07:28:22;;;;;;;38.20;22.55;;;;;;;13.61;95.08;101816.03;5057230;22;20064;-70
2023/05/14 07:30:48;;;;;;;40.58;23.60;;;;;;;13.71;97.25;101806.72;5111225;22;21076;-71
2023/05/14 07:33:13;;;;;;;33.03;21.42;;;;;;;13.88;94.42;101810.66;5087453;23;20029;-71
2023/05/14 07:35:38;;;;;;;39.80;21.75;;;;;;;14.00;93.51;101809.19;5152795;22;20092;-71
2023/05/14 07:38:05;;;;;;;37.17;21.48;;;;;;;14.07;95.41;101811.13;5106565;22;20611;-70
2023/05/14 07:42:55;;;;;;;36.13;22.73;;;;;;;14.11;91.49;101814.69;5050529;22;20065;-70
2023/05/14 07:45:20;;;;;;;38.38;22.92;;;;;;;14.13;93.51;101815.63;5075132;23;20068;-57
2023/05/14 07:47:50;;;;;;;37.85;21.00;;;;;;;14.25;92.83;101805.41;5239949;22;20081;-71
2023/05/14 07:52:45;;;;;;;37.97;23.02;;;;;;;14.38;91.68;101807.50;4983344;22;20049;-71
2023/05/14 07:55:11;;;;;;;37.47;22.48;;;;;;;14.40;90.49;101804.91;5085385;23;21198;-69
2023/05/14 07:57:37;;;;;;;37.53;22.60;;;;;;;14.53;93.16;101799.09;5153705;22;20060;-70
2023/05/14 08:00:03;;;;;;;42.67;23.05;;;;;;;14.62;93.51;101801.06;5005968;22;20061;-70
2023/05/14 08:02:28;;;;;;;39.30;21.42;;;;;;;14.74;91.08;101806.59;5032477;28;20029;-71
2023/05/14 08:04:54;;;;;;;37.85;21.77;;;;;;;14.73;89.41;101802.19;5114456;23;20411;-71
2023/05/14 08:07:20;;;;;;;35.15;22.70;;;;;;;14.66;90.10;101797.66;5079218;22;20551;-71
2023/05/14 08:14:49;;;;;;;35.15;21.58;;;;;;;15.12;86.58;101798.63;5168754;22;20107;-57
2023/05/14 08:19:44;;;;;;;35.50;22.38;;;;;;;15.25;86.77;101797.16;5158445;23;20064;-55
2023/05/14 08:22:09;;;;;;;33.38;21.45;;;;;;;15.48;86.13;101797.59;5084795;23;20029;-72
2023/05/14 08:24:34;;;;;;;35.30;22.27;;;;;;;15.62;84.77;101797.81;5163075;23;20123;-57
2023/05/14 08:27:01;;;;;;;33.20;21.63;;;;;;;15.76;87.26;101800.72;5245418;22;20067;-71
2023/05/14 08:31:51;;;;;;;33.15;21.83;;;;;;;15.89;85.40;101809.72;5241620;23;20061;-55
2023/05/14 08:34:17;;;;;;;34.35;21.30;;;;;;;15.89;82.79;101800.94;5132934;23;20057;-55
2023/05/14 08:36:42;;;;;;;36.97;21.85;;;;;;;15.89;83.82;101796.59;5178155;23;20562;-55
2023/05/14 08:39:07;;;;;;;32.88;21.88;;;;;;;15.90;81.33;101797.47;5074796;23;20805;-72
2023/05/14 08:41:33;;;;;;;33.45;21.05;;;;;;;15.91;82.84;101786.09;5139082;23;20057;-55
2023/05/14 08:44:08;;;;;;;33.80;21.10;;;;;;;16.01;85.04;101782.75;5124943;22;20040;-57
2023/05/14 08:46:35;;;;;;;30.48;20.42;;;;;;;16.17;81.81;101787.38;5074752;23;20065;-72
2023/05/14 08:49:15;;;;;;;30.38;20.77;;;;;;;16.40;82.67;101778.97;5140120;22;20353;-57
2023/05/14 08:51:42;;;;;;;34.83;21.67;;;;;;;16.61;82.97;101780.13;5261838;23;20263;-55
2023/05/14 08:54:09;;;;;;;34.65;21.63;;;;;;;16.84;84.65;101780.44;5061803;23;1191065;-57
2023/05/14 08:59:03;;;;;;;31.25;21.15;;;;;;;17.18;78.98;101768.59;5073922;22;20061;-72
2023/05/14 09:01:29;;;;;;;30.45;20.90;;;;;;;17.52;79.62;101776.88;5031420;28;20026;-72
2023/05/14 09:03:55;;;;;;;30.15;19.90;;;;;;;17.63;78.52;101766.41;5073557;23;20025;-56
2023/05/14 09:08:53;;;;;;;29.15;20.17;;;;;;;17.76;77.09;101766.53;5049851;23;20724;-55
2023/05/14 09:11:18;;;;;;;30.88;21.40;;;;;;;17.85;76.53;101762.19;5200247;23;20045;-55
2023/05/14 09:13:44;;;;;;;27.60;19.00;;;;;;;17.95;77.54;101751.78;5141165;22;20059;-71
2023/05/14 09:16:09;;;;;;;26.85;19.50;;;;;;;18.10;76.94;101751.00;5029937;28;20042;-72
2023/05/14 09:18:35;;;;;;;30.52;19.55;;;;;;;18.27;74.82;101756.41;5189384;22;20069;-55
2023/05/14 09:21:01;;;;;;;25.30;18.05;;;;;;;18.39;75.69;101753.81;5148412;22;20574;-55
2023/05/14 09:25:53;;;;;;;26.10;18.88;;;;;;;18.83;76.12;101750.53;5072042;22;20053;-57
2023/05/14 09:30:51;;;;;;;24.40;17.95;;;;;;;19.11;70.35;101751.50;5142726;22;20069;-72
2023/05/14 09:33:27;;;;;;;25.80;18.23;;;;;;;19.17;74.55;101748.00;5029298;28;20030;-72
2023/05/14 09:38:27;;;;;;;23.50;17.95;;;;;;;19.49;71.17;101741.88;5030445;22;20470;-72
2023/05/14 09:40:52;;;;;;;24.65;18.08;;;;;;;19.50;71.74;101733.09;5082030;22;20085;-72
2023/05/14 09:43:18;;;;;;;24.27;16.23;;;;;;;19.49;69.19;101741.03;5290452;22;20049;-55
2023/05/14 09:45:43;;;;;;;22.98;16.15;;;;;;;19.44;71.63;101741.03;5189319;22;20404;-71
2023/05/14 09:48:09;;;;;;;27.05;17.20;;;;;;;19.56;70.36;101735.72;5010547;28;20404;-72
2023/05/14 09:50:41;;;;;;;26.40;17.08;;;;;;;19.48;68.52;101734.88;5013443;28;20033;-72
2023/05/14 09:53:07;;;;;;;21.52;16.27;;;;;;;19.59;69.57;101738.38;5146403;22;20034;-72
2023/05/14 09:55:32;;;;;;;22.30;16.55;;;;;;;19.85;69.61;101734.00;5047692;22;20045;-72
2023/05/14 09:57:57;;;;;;;26.77;17.50;;;;;;;19.90;68.18;101729.59;5036317;22;20064;-72
2023/05/14 10:02:53;;;;;;;31.23;17.45;;;;;;;19.90;67.31;101730.47;5053910;23;20054;-71
2023/05/14 10:05:22;;;;;;;31.38;15.57;;;;;;;20.14;68.10;101723.38;5168837;22;20068;-55
2023/05/14 10:07:49;;;;;;;25.80;17.03;;;;;;;20.35;67.89;101724.22;5074276;23;20124;-72
2023/05/14 10:10:18;;;;;;;20.02;16.13;;;;;;;20.53;66.59;101723.28;5057033;23;20143;-55
2023/05/14 10:17:55;;;;;;;22.30;16.35;;;;;;;20.81;64.50;101724.97;5094130;22;20054;-72
2023/05/14 10:20:22;;;;;;;21.23;15.85;;;;;;;20.82;61.69;101715.22;5014648;28;20461;-72
2023/05/14 10:22:47;;;;;;;18.63;14.68;;;;;;;20.92;67.12;101719.59;5159893;22;20095;-71
2023/05/14 10:25:13;;;;;;;21.13;15.35;;;;;;;21.10;67.32;101721.28;5032853;28;20045;-72
2023/05/14 10:27:39;;;;;;;21.77;14.90;;;;;;;21.27;63.69;101714.97;5188097;22;20143;-55
2023/05/14 10:32:36;;;;;;;17.88;14.88;;;;;;;21.44;66.28;101720.16;5169453;22;20056;-55
2023/05/14 10:35:15;;;;;;;19.88;14.32;;;;;;;21.42;63.13;101713.97;5062248;22;20085;-72
2023/05/14 10:37:40;;;;;;;20.27;15.13;;;;;;;21.13;62.19;101717.69;5109743;22;20061;-55
2023/05/14 10:40:08;;;;;;;17.02;13.32;;;;;;;20.97;65.07;101715.16;5105468;22;20571;-55
2023/05/14 10:42:39;;;;;;;18.58;13.73;;;;;;;21.03;60.39;101703.66;5058919;22;20179;-72
2023/05/14 10:45:07;;;;;;;20.38;13.05;;;;;;;21.11;62.17;101704.47;5033950;28;20040;-72
2023/05/14 10:47:34;;;;;;;17.27;12.90;;;;;;;21.00;60.85;101703.63;5142491;22;20061;-55
2023/05/14 10:50:05;;;;;;;19.13;13.13;;;;;;;21.08;61.13;101699.19;5101302;22;20506;-55
2023/05/14 10:52:32;;;;;;;17.70;13.18;;;;;;;21.22;60.06;101699.09;5064250;22;20049;-72
2023/05/14 10:55:00;;;;;;;22.33;13.05;;;;;;;21.35;60.47;101702.56;5034164;28;20026;-72
2023/05/14 10:57:27;;;;;;;17.45;13.82;;;;;;;21.16;54.23;101694.72;5081570;22;20139;-72
2023/05/14 10:59:55;;;;;;;17.92;13.70;;;;;;;21.19;58.68;101691.19;5214666;22;20061;-56
2023/05/14 11:02:35;;;;;;;17.42;11.85;;;;;;;21.30;53.65;101688.44;4993762;28;20045;-56
2023/05/14 11:05:07;;;;;;;21.55;12.30;;;;;;;21.62;62.61;101685.53;5029620;23;20912;-72
2023/05/14 11:07:37;;;;;;;17.10;12.30;;;;;;;21.95;58.18;101683.47;5244842;22;20145;-72
2023/05/14 11:10:10;;;;;;;15.75;12.15;;;;;;;22.28;57.89;101684.00;5319993;23;20039;-72
2023/05/14 11:12:37;;;;;;;15.77;12.00;;;;;;;22.49;59.33;101680.25;5206361;22;20053;-71
2023/05/14 11:15:06;;;;;;;20.33;12.88;;;;;;;22.45;54.37;101674.97;5206454;23;20080;-72
2023/05/14 11:17:31;;;;;;;14.13;12.23;;;;;;;22.23;57.34;101672.53;5057148;23;20400;-56
2023/05/14 11:25:16;;;;;;;13.63;11.50;;;;;;;22.17;56.78;101668.22;5060793;22;20053;-72
2023/05/14 11:27:43;;;;;;;15.30;12.18;;;;;;;22.16;57.97;101673.50;5090235;23;20066;-72
2023/05/14 11:30:15;;;;;;;14.18;10.20;;;;;;;22.16;56.49;101668.19;5055745;22;20584;-71
2023/05/14 11:35:10;;;;;;;15.45;11.05;;;;;;;22.25;54.59;101657.47;5010714;23;20057;-71
2023/05/14 11:37:35;;;;;;;14.45;10.60;;;;;;;22.40;60.78;101660.00;5032463;28;20029;-71
2023/05/14 11:40:00;;;;;;;12.50;10.73;;;;;;;22.61;54.15;101655.28;5079246;23;20045;-56
2023/05/14 11:42:26;;;;;;;13.73;10.57;;;;;;;22.78;53.89;101656.81;5231895;23;20064;-55
2023/05/14 11:44:55;;;;;;;13.18;10.77;;;;;;;22.81;52.60;101657.69;5142712;23;20075;-71
2023/05/14 11:47:21;;;;;;;11.48;9.80;;;;;;;22.77;53.10;101652.41;5055815;23;20061;-55
2023/05/14 11:49:47;;;;;;;13.05;11.10;;;;;;;22.65;51.42;101640.16;5079678;22;20061;-55
2023/05/14 11:52:14;;;;;;;14.48;10.55;;;;;;;22.59;54.77;101649.09;5077130;22;20539;-55
2023/05/14 11:54:41;;;;;;;14.15;10.48;;;;;;;22.66;52.95;101647.25;5079990;22;20025;-71
2023/05/14 11:57:09;;;;;;;14.00;10.38;;;;;;;22.64;53.77;101641.97;5033147;28;20528;-71
2023/05/14 11:59:34;;;;;;;13.73;10.00;;;;;;;22.77;49.38;101637.34;5055907;23;20168;-57
2023/05/14 12:02:01;;;;;;;12.00;9.30;;;;;;;22.68;53.00;101638.38;5031113;28;20176;-56
2023/05/14 12:04:28;;;;;;;10.38;9.27;;;;;;;22.82;50.02;101637.28;5108939;22;20169;-56
2023/05/14 12:09:25;;;;;;;11.43;8.88;;;;;;;23.16;49.21;101629.69;5066320;22;20053;-57
2023/05/14 12:11:51;;;;;;;11.35;8.85;;;;;;;23.35;51.53;101632.94;5017943;23;20057;-71
2023/05/14 12:16:48;;;;;;;9.82;8.57;;;;;;;23.51;51.60;101627.34;5052538;23;20061;-56
2023/05/14 12:19:15;;;;;;;10.63;8.20;;;;;;;23.72;50.03;101629.63;5062087;22;20072;-57
2023/05/14 12:21:46;;;;;;;9.32;8.07;;;;;;;23.85;50.15;101621.38;5047356;22;20052;-96
2023/05/14 12:24:17;;;;;;;13.27;9.10;;;;;;;23.72;45.11;101616.31;5030103;28;20025;-96
2023/05/14 12:26:48;;;;;;;11.18;8.68;;;;;;;23.64;47.62;101617.34;5026227;28;20166;-96
2023/05/14 12:29:14;;;;;;;10.48;8.13;;;;;;;23.69;47.11;101608.34;5027777;28;20036;-95
2023/05/14 12:31:48;;;;;;;10.10;8.77;;;;;;;23.63;49.17;101615.59;5040568;28;20025;-96
2023/05/14 12:34:16;;;;;;;11.75;7.85;;;;;;;23.43;49.95;101615.06;5026773;28;20029;-96
2023/05/14 12:36:42;;;;;;;52.15;10.65;;;;;;;23.37;44.51;101606.31;5029117;28;20882;-96
2023/05/14 12:39:09;;;;;;;10.07;7.47;;;;;;;23.50;47.86;101607.81;5024658;28;20166;-96
2023/05/14 12:41:34;;;;;;;10.30;7.10;;;;;;;23.65;44.94;101601.38;5025340;28;20478;-96
2023/05/14 12:44:10;;;;;;;7.93;6.65;;;;;;;23.80;41.72;101600.19;5031120;28;20024;-96
2023/05/14 12:46:35;;;;;;;7.57;6.20;;;;;;;23.81;41.65;101593.97;5029539;28;20021;-96
2023/05/14 12:49:05;;;;;;;11.00;7.47;;;;;;;23.87;45.97;101598.28;5034191;28;20036;-96
2023/05/14 12:51:33;;;;;;;14.23;12.10;;;;;;;23.99;44.51;101591.88;5057254;28;20053;-96
2023/05/14 12:54:14;;;;;;;7.28;6.47;;;;;;;24.21;44.81;101589.63;5036173;28;20090;-96
2023/05/14 12:56:43;;;;;;;8.18;6.30;;;;;;;24.11;43.67;101589.84;5031204;28;20087;-96
2023/05/14 12:59:11;;;;;;;8.65;6.90;;;;;;;23.99;43.29;101581.22;5071997;22;20053;-96
2023/05/14 13:01:40;;;;;;;8.00;6.03;;;;;;;23.92;39.17;101584.00;5036020;28;20040;-96
2023/05/14 13:04:07;;;;;;;7.13;6.43;;;;;;;23.86;41.38;101576.13;5023112;28;20116;-96
2023/05/14 13:07:28;;;;;;;9.05;6.60;;;;;;;23.92;42.28;101575.13;5024567;28;20024;-96